Time;durP1;ratioP1;P1;durP2;ratioP2;P2;SDS_P1;SDS_P2;PMS_P1;PMS_P2;Temp;Humidity;BMP_temperature;BMP_pressure;BME280_temperature;BME280_humidity;BME280_pressure;Samples;Min_cycle;Max_cycle;Signal;HPM_P1;HPM_P2
2023/06/26 00:00:15;;;;;;;12.82;11.23;;;;;;;;;;5088810;28;20567;-68
2023/06/26 00:02:41;;;;;;;11.60;10.50;;;;;;;;;;5089534;28;20211;-68
2023/06/26 00:05:07;;;;;;;14.07;10.60;;;;;;;;;;5089804;28;20265;-68
2023/06/26 00:07:36;;;;;;;15.88;11.90;;;;;;;;;;5091436;28;20622;-68
2023/06/26 00:10:02;;;;;;;12.60;11.07;;;;;;;;;;5079559;28;20603;-68
2023/06/26 00:12:28;;;;;;;12.20;10.90;;;;;;;;;;5082308;28;20232;-69
2023/06/26 00:14:54;;;;;;;11.63;10.40;;;;;;;;;;5081900;28;20262;-70
2023/06/26 00:17:21;;;;;;;13.05;11.38;;;;;;;;;;5089303;28;20605;-67
2023/06/26 00:19:46;;;;;;;11.82;10.63;;;;;;;;;;5078947;28;20208;-67
2023/06/26 00:22:12;;;;;;;13.32;11.20;;;;;;;;;;5080611;28;20196;-68
2023/06/26 00:24:37;;;;;;;12.88;11.48;;;;;;;;;;5090355;28;20305;-67
2023/06/26 00:27:03;;;;;;;12.02;10.82;;;;;;;;;;5082966;28;20604;-68
2023/06/26 00:29:28;;;;;;;12.30;10.82;;;;;;;;;;5083031;28;20192;-68
2023/06/26 00:31:53;;;;;;;13.55;11.13;;;;;;;;;;5085847;28;20636;-68
2023/06/26 00:34:19;;;;;;;14.60;11.68;;;;;;;;;;5088638;28;20212;-69
2023/06/26 00:36:44;;;;;;;12.60;11.32;;;;;;;;;;5090483;28;20196;-68
2023/06/26 00:39:10;;;;;;;11.85;10.68;;;;;;;;;;5087053;28;20187;-68
2023/06/26 00:41:36;;;;;;;12.25;10.98;;;;;;;;;;5083163;28;20345;-68
2023/06/26 00:44:02;;;;;;;12.07;10.88;;;;;;;;;;5076205;28;20276;-69
2023/06/26 00:46:28;;;;;;;15.02;11.57;;;;;;;;;;5090539;28;20204;-68
2023/06/26 00:48:54;;;;;;;13.60;11.23;;;;;;;;;;5077940;28;20461;-68
2023/06/26 00:51:20;;;;;;;12.32;11.13;;;;;;;;;;5076838;28;20757;-68
2023/06/26 00:53:46;;;;;;;14.02;10.68;;;;;;;;;;5088063;28;20216;-68
2023/06/26 00:56:11;;;;;;;13.57;11.82;;;;;;;;;;5087845;28;20250;-68
2023/06/26 00:58:37;;;;;;;12.27;10.57;;;;;;;;;;5080928;28;20672;-68
2023/06/26 01:01:03;;;;;;;13.60;11.02;;;;;;;;;;5086628;28;20273;-69
2023/06/26 01:03:28;;;;;;;11.80;10.60;;;;;;;;;;5089773;28;20203;-69
2023/06/26 01:05:56;;;;;;;12.88;11.07;;;;;;;;;;5089400;28;20180;-68
2023/06/26 01:08:22;;;;;;;12.23;10.93;;;;;;;;;;5081340;28;20682;-69
2023/06/26 01:10:48;;;;;;;13.93;11.45;;;;;;;;;;5089453;28;20191;-69
2023/06/26 01:13:14;;;;;;;11.80;10.60;;;;;;;;;;5085303;28;20537;-69
2023/06/26 01:15:40;;;;;;;11.48;10.38;;;;;;;;;;5087484;28;20807;-69
2023/06/26 01:18:06;;;;;;;11.80;10.60;;;;;;;;;;5081768;28;20222;-69
2023/06/26 01:20:35;;;;;;;12.10;10.82;;;;;;;;;;5089521;28;20241;-69
2023/06/26 01:23:20;;;;;;;12.48;11.27;;;;;;;;;;5089515;28;20270;-69
2023/06/26 01:25:54;;;;;;;11.55;10.43;;;;;;;;;;5074034;28;20187;-69
2023/06/26 01:28:20;;;;;;;12.00;10.80;;;;;;;;;;5079938;28;20184;-69
2023/06/26 01:30:47;;;;;;;11.40;10.27;;;;;;;;;;5076804;28;20177;-69
2023/06/26 01:33:13;;;;;;;13.95;10.52;;;;;;;;;;5080344;28;20200;-69
2023/06/26 01:35:40;;;;;;;12.13;10.00;;;;;;;;;;5080232;28;20185;-69
2023/06/26 01:38:15;;;;;;;11.70;10.50;;;;;;;;;;5077965;28;20181;-69
2023/06/26 01:40:41;;;;;;;12.18;10.48;;;;;;;;;;5084900;28;20238;-70
2023/06/26 01:43:28;;;;;;;12.45;10.68;;;;;;;;;;5079934;28;20189;-68
2023/06/26 01:46:01;;;;;;;12.38;9.73;;;;;;;;;;5076160;28;20195;-69
2023/06/26 01:48:32;;;;;;;11.63;10.30;;;;;;;;;;5077970;28;20180;-68
2023/06/26 01:50:59;;;;;;;11.93;10.63;;;;;;;;;;5074442;28;20204;-68
2023/06/26 01:53:29;;;;;;;12.07;10.10;;;;;;;;;;5080198;28;20550;-68
2023/06/26 01:56:12;;;;;;;11.35;10.25;;;;;;;;;;5082774;28;20240;-68
2023/06/26 01:58:43;;;;;;;14.75;10.30;;;;;;;;;;5082805;28;20198;-69
2023/06/26 02:01:09;;;;;;;13.25;11.10;;;;;;;;;;5086988;28;20212;-69
2023/06/26 02:03:35;;;;;;;12.05;9.68;;;;;;;;;;5088882;28;20184;-68
2023/06/26 02:06:00;;;;;;;12.32;10.55;;;;;;;;;;5069110;28;20184;-68
2023/06/26 02:08:25;;;;;;;11.85;10.07;;;;;;;;;;5086970;28;20195;-69
2023/06/26 02:10:51;;;;;;;12.38;10.30;;;;;;;;;;5076714;28;20185;-69
2023/06/26 02:13:16;;;;;;;12.38;10.07;;;;;;;;;;5077260;28;20225;-69
2023/06/26 02:15:41;;;;;;;11.43;10.23;;;;;;;;;;5080434;28;20281;-68
2023/06/26 02:18:07;;;;;;;11.57;10.35;;;;;;;;;;5085747;28;20288;-68
2023/06/26 02:20:33;;;;;;;11.68;10.48;;;;;;;;;;5087621;28;20192;-69
2023/06/26 02:22:58;;;;;;;13.27;11.55;;;;;;;;;;5079208;28;20185;-68
2023/06/26 02:25:24;;;;;;;12.48;11.27;;;;;;;;;;5083208;28;20188;-68
2023/06/26 02:27:49;;;;;;;12.18;10.88;;;;;;;;;;5076773;28;20192;-68
2023/06/26 02:30:14;;;;;;;13.85;12.10;;;;;;;;;;5084942;28;20202;-69
2023/06/26 02:32:40;;;;;;;13.38;11.18;;;;;;;;;;5079649;28;20204;-69
2023/06/26 02:35:06;;;;;;;15.48;12.40;;;;;;;;;;5073766;28;20184;-68
2023/06/26 02:37:31;;;;;;;14.38;11.63;;;;;;;;;;5076754;28;20538;-69
2023/06/26 02:39:57;;;;;;;16.52;12.23;;;;;;;;;;5082078;28;20224;-69
2023/06/26 02:42:22;;;;;;;15.07;13.32;;;;;;;;;;5071158;28;20629;-69
2023/06/26 02:44:47;;;;;;;15.68;12.63;;;;;;;;;;5084867;28;20241;-69
2023/06/26 02:47:13;;;;;;;15.05;12.95;;;;;;;;;;5080850;28;20191;-69
2023/06/26 02:49:38;;;;;;;15.13;13.52;;;;;;;;;;5077805;28;20216;-69
2023/06/26 02:52:04;;;;;;;14.82;12.48;;;;;;;;;;5068038;28;20181;-69
2023/06/26 02:54:29;;;;;;;15.25;13.23;;;;;;;;;;5079530;28;20287;-69
2023/06/26 02:56:54;;;;;;;13.35;12.05;;;;;;;;;;5079296;28;20191;-70
2023/06/26 02:59:20;;;;;;;17.55;14.73;;;;;;;;;;5082888;28;20287;-69
2023/06/26 03:01:45;;;;;;;15.65;14.00;;;;;;;;;;5079571;28;20264;-69
2023/06/26 03:04:11;;;;;;;16.70;13.90;;;;;;;;;;5078578;28;20198;-69
2023/06/26 03:06:36;;;;;;;15.90;14.25;;;;;;;;;;5075530;28;20615;-69
2023/06/26 03:09:05;;;;;;;15.13;13.50;;;;;;;;;;5071942;28;20204;-68
2023/06/26 03:11:30;;;;;;;18.65;14.10;;;;;;;;;;5081906;28;20271;-68
2023/06/26 03:13:55;;;;;;;16.73;14.93;;;;;;;;;;5079373;28;20307;-68
2023/06/26 03:16:21;;;;;;;15.55;13.95;;;;;;;;;;5082932;28;20608;-68
2023/06/26 03:18:46;;;;;;;17.33;15.52;;;;;;;;;;5079692;28;20189;-68
2023/06/26 03:21:11;;;;;;;15.95;14.25;;;;;;;;;;5087506;28;20196;-68
2023/06/26 03:23:37;;;;;;;15.77;14.15;;;;;;;;;;5074800;28;20180;-68
2023/06/26 03:26:02;;;;;;;16.80;14.48;;;;;;;;;;5077523;28;20200;-68
2023/06/26 03:28:28;;;;;;;16.27;14.25;;;;;;;;;;5082774;28;20421;-68
2023/06/26 03:30:53;;;;;;;15.65;14.00;;;;;;;;;;5087288;28;20714;-68
2023/06/26 03:33:18;;;;;;;17.55;14.18;;;;;;;;;;5087626;28;20338;-68
2023/06/26 03:35:44;;;;;;;16.48;14.40;;;;;;;;;;5087696;28;20279;-69
2023/06/26 03:38:09;;;;;;;19.30;15.18;;;;;;;;;;5088338;28;20199;-68
2023/06/26 03:40:35;;;;;;;16.10;14.25;;;;;;;;;;5073984;28;20235;-69
2023/06/26 03:43:00;;;;;;;23.40;16.08;;;;;;;;;;5078007;28;20177;-68
2023/06/26 03:45:26;;;;;;;18.35;14.40;;;;;;;;;;5075173;28;20533;-69
2023/06/26 03:47:51;;;;;;;17.67;14.73;;;;;;;;;;5068385;28;20188;-68
2023/06/26 03:50:16;;;;;;;17.02;14.82;;;;;;;;;;5076899;28;20427;-68
2023/06/26 03:52:42;;;;;;;16.95;14.35;;;;;;;;;;5087277;28;20640;-69
2023/06/26 03:55:08;;;;;;;17.77;14.57;;;;;;;;;;5084810;28;20274;-69
2023/06/26 03:57:33;;;;;;;15.90;14.20;;;;;;;;;;5077074;28;20176;-68
2023/06/26 03:59:58;;;;;;;21.77;14.38;;;;;;;;;;5066380;28;20212;-69
2023/06/26 04:02:24;;;;;;;15.75;13.65;;;;;;;;;;5078836;28;20248;-69
2023/06/26 04:04:49;;;;;;;18.42;14.45;;;;;;;;;;5073954;28;20189;-69
2023/06/26 04:07:15;;;;;;;14.98;13.38;;;;;;;;;;5073863;28;20254;-69
2023/06/26 04:09:40;;;;;;;14.95;13.35;;;;;;;;;;5079932;28;20741;-68
2023/06/26 04:12:06;;;;;;;17.00;12.35;;;;;;;;;;5087356;28;20211;-68
2023/06/26 04:14:31;;;;;;;13.88;12.35;;;;;;;;;;5079065;28;20704;-68
2023/06/26 04:16:57;;;;;;;15.88;12.85;;;;;;;;;;5084445;28;20242;-68
2023/06/26 04:19:23;;;;;;;17.40;12.57;;;;;;;;;;5090869;28;20177;-69
2023/06/26 04:21:48;;;;;;;16.48;13.40;;;;;;;;;;5089344;28;20254;-69
2023/06/26 04:24:14;;;;;;;17.65;13.35;;;;;;;;;;5086171;28;20261;-69
2023/06/26 04:26:40;;;;;;;15.75;13.10;;;;;;;;;;5080186;28;20204;-70
2023/06/26 04:29:06;;;;;;;14.88;12.80;;;;;;;;;;5080801;28;20184;-69
2023/06/26 04:31:32;;;;;;;18.27;13.73;;;;;;;;;;5075197;28;20211;-69
2023/06/26 04:33:59;;;;;;;15.88;13.98;;;;;;;;;;5086235;28;20757;-69
2023/06/26 04:36:28;;;;;;;15.55;13.70;;;;;;;;;;5086089;28;20666;-69
2023/06/26 04:38:54;;;;;;;14.15;12.68;;;;;;;;;;5080422;28;20203;-69
2023/06/26 04:41:19;;;;;;;14.65;12.50;;;;;;;;;;5082016;28;20223;-69
2023/06/26 04:43:44;;;;;;;17.00;12.10;;;;;;;;;;5089232;28;20262;-69
2023/06/26 04:46:10;;;;;;;16.65;11.40;;;;;;;;;;5078905;28;20184;-68
2023/06/26 04:48:35;;;;;;;14.40;11.23;;;;;;;;;;5078077;28;20188;-69
2023/06/26 04:51:00;;;;;;;13.60;10.93;;;;;;;;;;5075518;28;20188;-68
2023/06/26 04:53:26;;;;;;;12.40;10.93;;;;;;;;;;5081445;28;20213;-68
2023/06/26 04:55:52;;;;;;;12.95;10.10;;;;;;;;;;5084274;28;20659;-68
2023/06/26 04:58:18;;;;;;;13.27;10.18;;;;;;;;;;5072030;28;20220;-69
2023/06/26 05:00:44;;;;;;;13.80;9.75;;;;;;;;;;5084205;28;20210;-68
2023/06/26 05:03:12;;;;;;;12.43;9.55;;;;;;;;;;5077542;28;20432;-68
2023/06/26 05:05:37;;;;;;;11.38;9.05;;;;;;;;;;5082295;28;20212;-69
2023/06/26 05:08:16;;;;;;;15.23;10.45;;;;;;;;;;5081720;28;20748;-68
2023/06/26 05:10:42;;;;;;;12.88;9.23;;;;;;;;;;5082928;28;20718;-68
2023/06/26 05:13:07;;;;;;;13.77;9.48;;;;;;;;;;5076609;28;20349;-69
2023/06/26 05:15:33;;;;;;;16.08;9.15;;;;;;;;;;5074408;28;20189;-69
2023/06/26 05:17:58;;;;;;;11.18;8.25;;;;;;;;;;5087913;28;20188;-69
2023/06/26 05:20:23;;;;;;;11.13;8.35;;;;;;;;;;5083750;28;20188;-68
2023/06/26 05:22:49;;;;;;;12.65;6.97;;;;;;;;;;5074702;28;20272;-67
2023/06/26 05:25:15;;;;;;;13.55;8.20;;;;;;;;;;5082838;28;20185;-67
2023/06/26 05:27:41;;;;;;;12.43;7.50;;;;;;;;;;5072175;28;20196;-68
2023/06/26 05:30:07;;;;;;;15.77;8.18;;;;;;;;;;5081860;28;20200;-68
2023/06/26 05:32:35;;;;;;;10.98;7.95;;;;;;;;;;5089223;28;20277;-69
2023/06/26 05:35:03;;;;;;;15.05;7.65;;;;;;;;;;5086915;28;20187;-70
2023/06/26 05:37:29;;;;;;;11.93;6.43;;;;;;;;;;5082328;28;20180;-68
2023/06/26 05:39:54;;;;;;;10.55;6.90;;;;;;;;;;5082364;28;20251;-68
2023/06/26 05:42:20;;;;;;;14.13;7.85;;;;;;;;;;5083530;28;20224;-69
2023/06/26 05:44:45;;;;;;;11.15;7.40;;;;;;;;;;5086274;28;20271;-69
2023/06/26 05:47:11;;;;;;;12.82;8.05;;;;;;;;;;5088714;28;20591;-69
2023/06/26 05:49:36;;;;;;;12.98;7.90;;;;;;;;;;5086152;28;20181;-70
2023/06/26 05:52:02;;;;;;;12.48;8.20;;;;;;;;;;5070247;28;20524;-69
2023/06/26 05:54:27;;;;;;;13.15;7.80;;;;;;;;;;5083035;28;20683;-70
2023/06/26 05:56:59;;;;;;;11.32;7.70;;;;;;;;;;5083507;28;20778;-69
2023/06/26 05:59:26;;;;;;;10.68;7.63;;;;;;;;;;5084497;28;20184;-69
2023/06/26 06:01:51;;;;;;;12.68;6.85;;;;;;;;;;5079716;28;20326;-69
2023/06/26 06:04:17;;;;;;;12.85;7.15;;;;;;;;;;5078426;28;20717;-69
2023/06/26 06:06:42;;;;;;;12.82;7.18;;;;;;;;;;5085591;28;20257;-69
2023/06/26 06:09:07;;;;;;;13.10;6.50;;;;;;;;;;5074976;28;20281;-68
2023/06/26 06:11:33;;;;;;;15.32;7.45;;;;;;;;;;5075599;28;20813;-68
2023/06/26 06:13:59;;;;;;;13.40;6.85;;;;;;;;;;5085250;28;20220;-68
2023/06/26 06:16:25;;;;;;;14.60;7.22;;;;;;;;;;5087225;28;20290;-68
2023/06/26 06:18:50;;;;;;;14.88;6.38;;;;;;;;;;5085041;28;20259;-69
2023/06/26 06:21:16;;;;;;;17.48;6.97;;;;;;;;;;5082479;28;20192;-69
2023/06/26 06:23:41;;;;;;;13.93;6.95;;;;;;;;;;5076083;28;20184;-70
2023/06/26 06:26:07;;;;;;;16.13;6.60;;;;;;;;;;5085756;28;20211;-68
2023/06/26 06:28:32;;;;;;;11.65;6.45;;;;;;;;;;5078854;28;20668;-69
2023/06/26 06:30:57;;;;;;;12.00;5.68;;;;;;;;;;5087341;28;20184;-69
2023/06/26 06:33:23;;;;;;;14.15;6.63;;;;;;;;;;5082908;28;20747;-68
2023/06/26 06:35:48;;;;;;;21.52;6.85;;;;;;;;;;5080527;28;20191;-69
2023/06/26 06:38:13;;;;;;;12.55;6.05;;;;;;;;;;5081791;28;20196;-66
2023/06/26 06:40:39;;;;;;;14.45;5.95;;;;;;;;;;5082742;28;20307;-68
2023/06/26 06:43:04;;;;;;;10.75;5.85;;;;;;;;;;5084122;28;20226;-68
2023/06/26 06:45:29;;;;;;;11.82;5.78;;;;;;;;;;5082814;28;20209;-69
2023/06/26 06:47:55;;;;;;;12.40;5.90;;;;;;;;;;5073243;28;20184;-69
2023/06/26 06:50:21;;;;;;;10.40;5.22;;;;;;;;;;5081001;28;20595;-69
2023/06/26 06:52:46;;;;;;;9.07;5.53;;;;;;;;;;5077749;28;20304;-68
2023/06/26 06:55:11;;;;;;;15.35;5.50;;;;;;;;;;5072814;28;20232;-69
2023/06/26 06:57:39;;;;;;;9.23;5.25;;;;;;;;;;5074991;28;20242;-68
2023/06/26 07:00:11;;;;;;;9.48;5.03;;;;;;;;;;5075346;28;20188;-68
2023/06/26 07:02:46;;;;;;;13.18;5.55;;;;;;;;;;5069886;28;20173;-69
2023/06/26 07:05:11;;;;;;;10.27;5.03;;;;;;;;;;5086963;28;20183;-69
2023/06/26 07:07:38;;;;;;;5.95;4.00;;;;;;;;;;5069782;28;20180;-68
2023/06/26 07:10:09;;;;;;;5.43;3.75;;;;;;;;;;5079907;28;20207;-68
2023/06/26 07:12:35;;;;;;;7.50;3.30;;;;;;;;;;5070588;28;20215;-68
2023/06/26 07:15:02;;;;;;;6.55;2.80;;;;;;;;;;5079814;28;20263;-66
2023/06/26 07:17:27;;;;;;;5.53;3.10;;;;;;;;;;5077916;28;20177;-69
2023/06/26 07:19:53;;;;;;;6.55;3.20;;;;;;;;;;5080096;28;20490;-69
2023/06/26 07:22:21;;;;;;;9.90;3.50;;;;;;;;;;5079706;28;20180;-70
2023/06/26 07:24:47;;;;;;;5.28;3.10;;;;;;;;;;5067166;28;20605;-70
2023/06/26 07:27:18;;;;;;;7.60;2.40;;;;;;;;;;5082046;28;20545;-69
2023/06/26 07:29:43;;;;;;;5.95;2.40;;;;;;;;;;5068261;28;20652;-69
2023/06/26 07:32:08;;;;;;;5.13;2.17;;;;;;;;;;5069796;28;20188;-69
2023/06/26 07:34:34;;;;;;;7.35;2.30;;;;;;;;;;5071884;28;20558;-69
2023/06/26 07:37:00;;;;;;;4.32;1.80;;;;;;;;;;5075511;28;20203;-68
2023/06/26 07:39:25;;;;;;;5.90;2.00;;;;;;;;;;5083452;28;20280;-68
2023/06/26 07:41:51;;;;;;;3.70;2.30;;;;;;;;;;5081743;28;20183;-66
2023/06/26 07:44:16;;;;;;;8.30;2.50;;;;;;;;;;5076902;28;20184;-69
2023/06/26 07:46:41;;;;;;;4.03;2.42;;;;;;;;;;5084162;28;20200;-70
2023/06/26 07:49:07;;;;;;;4.72;2.20;;;;;;;;;;5076919;28;20245;-68
2023/06/26 07:51:32;;;;;;;5.10;2.30;;;;;;;;;;5074262;28;20207;-69
2023/06/26 07:53:57;;;;;;;6.65;2.72;;;;;;;;;;5071934;28;20625;-68
2023/06/26 07:56:23;;;;;;;7.03;2.60;;;;;;;;;;5082752;28;20191;-69
2023/06/26 07:58:48;;;;;;;3.78;2.10;;;;;;;;;;5091476;28;20249;-66
2023/06/26 08:01:14;;;;;;;6.63;2.63;;;;;;;;;;5082100;28;20298;-69
2023/06/26 08:03:40;;;;;;;3.47;1.92;;;;;;;;;;5079830;28;20642;-67
2023/06/26 08:06:05;;;;;;;3.88;2.00;;;;;;;;;;5076402;28;20639;-69
2023/06/26 08:08:31;;;;;;;5.82;2.03;;;;;;;;;;5079821;28;20289;-69
2023/06/26 08:10:56;;;;;;;4.55;1.90;;;;;;;;;;5083523;28;20195;-69
2023/06/26 08:13:21;;;;;;;4.15;2.00;;;;;;;;;;5087050;28;20288;-69
2023/06/26 08:15:47;;;;;;;5.80;2.17;;;;;;;;;;5084698;28;20188;-67
2023/06/26 08:18:12;;;;;;;5.88;2.10;;;;;;;;;;5071901;28;20579;-69
2023/06/26 08:20:37;;;;;;;4.45;2.08;;;;;;;;;;5078247;28;20192;-69
2023/06/26 08:23:04;;;;;;;4.43;2.30;;;;;;;;;;5091244;28;20195;-68
2023/06/26 08:25:29;;;;;;;3.30;1.95;;;;;;;;;;5075518;28;20196;-69
2023/06/26 08:27:55;;;;;;;5.70;2.40;;;;;;;;;;5091266;28;20181;-68
2023/06/26 08:30:21;;;;;;;6.47;2.92;;;;;;;;;;5075377;28;20235;-69
2023/06/26 08:32:46;;;;;;;5.45;2.20;;;;;;;;;;5081820;28;20204;-69
2023/06/26 08:35:12;;;;;;;4.15;2.38;;;;;;;;;;5070418;28;20504;-67
2023/06/26 08:37:37;;;;;;;5.88;2.70;;;;;;;;;;5090845;28;20180;-69
2023/06/26 08:40:04;;;;;;;5.38;2.40;;;;;;;;;;5090853;28;20235;-69
2023/06/26 08:42:29;;;;;;;7.60;2.60;;;;;;;;;;5080218;28;20207;-70
2023/06/26 08:44:55;;;;;;;5.10;2.45;;;;;;;;;;5090780;28;20211;-67
2023/06/26 08:47:21;;;;;;;3.30;2.30;;;;;;;;;;5075779;28;20189;-69
2023/06/26 08:49:53;;;;;;;4.13;2.55;;;;;;;;;;5070134;28;20192;-68
2023/06/26 08:52:27;;;;;;;5.90;2.58;;;;;;;;;;5073599;28;20185;-68
2023/06/26 08:54:58;;;;;;;8.05;2.40;;;;;;;;;;5081304;28;20213;-68
2023/06/26 08:57:25;;;;;;;3.28;2.55;;;;;;;;;;5073328;28;20643;-69
2023/06/26 08:59:51;;;;;;;4.05;2.60;;;;;;;;;;5069626;28;20272;-68
2023/06/26 09:02:17;;;;;;;6.85;3.00;;;;;;;;;;5071134;28;20227;-69
2023/06/26 09:04:42;;;;;;;10.35;3.15;;;;;;;;;;5069904;28;20204;-68
2023/06/26 09:07:08;;;;;;;5.07;2.58;;;;;;;;;;5084946;28;20266;-68
2023/06/26 09:09:34;;;;;;;4.40;2.55;;;;;;;;;;5077041;28;20228;-68
2023/06/26 09:12:02;;;;;;;4.93;2.63;;;;;;;;;;5079440;28;20327;-68
2023/06/26 09:14:28;;;;;;;9.15;2.70;;;;;;;;;;5085652;28;20205;-68
2023/06/26 09:16:54;;;;;;;5.63;2.30;;;;;;;;;;5078742;28;20241;-68
2023/06/26 09:19:19;;;;;;;9.25;2.70;;;;;;;;;;5070595;28;20193;-69
2023/06/26 09:21:44;;;;;;;7.35;2.38;;;;;;;;;;5080870;28;20271;-68
2023/06/26 09:24:10;;;;;;;9.65;2.70;;;;;;;;;;5088757;28;20605;-68
2023/06/26 09:26:38;;;;;;;4.18;2.30;;;;;;;;;;5077610;28;20185;-68
2023/06/26 09:29:05;;;;;;;3.70;2.10;;;;;;;;;;5083634;28;20195;-69
2023/06/26 09:31:30;;;;;;;5.05;2.25;;;;;;;;;;5072472;28;20196;-68
2023/06/26 09:33:59;;;;;;;6.65;2.50;;;;;;;;;;5072389;28;20218;-66
2023/06/26 09:36:28;;;;;;;6.70;2.05;;;;;;;;;;5085402;28;20191;-69
2023/06/26 09:38:53;;;;;;;5.20;2.40;;;;;;;;;;5071710;28;20204;-68
2023/06/26 09:41:19;;;;;;;4.22;2.63;;;;;;;;;;5076050;28;20820;-68
2023/06/26 09:43:51;;;;;;;3.65;2.20;;;;;;;;;;5082216;28;20204;-68
2023/06/26 09:46:26;;;;;;;2.20;2.00;;;;;;;;;;5075223;28;20184;-68
2023/06/26 09:49:05;;;;;;;5.68;2.80;;;;;;;;;;5074064;28;20185;-67
2023/06/26 09:51:34;;;;;;;4.25;2.80;;;;;;;;;;5077545;28;20191;-68
2023/06/26 09:54:01;;;;;;;7.80;2.78;;;;;;;;;;5071788;28;20319;-68
2023/06/26 09:56:28;;;;;;;6.22;2.45;;;;;;;;;;5088378;28;20272;-68
2023/06/26 09:58:58;;;;;;;4.57;2.28;;;;;;;;;;5069333;28;20189;-67
2023/06/26 10:01:24;;;;;;;5.20;2.60;;;;;;;;;;5087667;28;20247;-69
2023/06/26 10:03:50;;;;;;;5.95;2.67;;;;;;;;;;5076201;28;20541;-68
2023/06/26 10:06:19;;;;;;;5.47;2.70;;;;;;;;;;5088434;28;20184;-67
2023/06/26 10:08:46;;;;;;;7.55;2.50;;;;;;;;;;5076448;28;20234;-70
2023/06/26 10:11:15;;;;;;;8.98;2.97;;;;;;;;;;5073963;28;20263;-68
2023/06/26 10:13:46;;;;;;;8.27;3.03;;;;;;;;;;5073019;28;20215;-69
2023/06/26 10:16:12;;;;;;;6.40;2.90;;;;;;;;;;5075775;28;20189;-67
2023/06/26 10:18:38;;;;;;;6.80;3.10;;;;;;;;;;5087895;28;20467;-67
2023/06/26 10:21:06;;;;;;;4.45;2.45;;;;;;;;;;5074208;28;20184;-68
2023/06/26 10:23:32;;;;;;;5.95;2.75;;;;;;;;;;5074257;28;20324;-68
2023/06/26 10:26:00;;;;;;;6.90;2.67;;;;;;;;;;5074616;28;20279;-67
2023/06/26 10:28:28;;;;;;;3.78;2.20;;;;;;;;;;5087553;28;20184;-67
2023/06/26 10:30:54;;;;;;;5.03;2.45;;;;;;;;;;5087229;28;20198;-69
2023/06/26 10:33:20;;;;;;;7.10;2.72;;;;;;;;;;5067168;28;20205;-69
2023/06/26 10:35:46;;;;;;;8.73;2.78;;;;;;;;;;5081247;28;20557;-69
2023/06/26 10:38:11;;;;;;;4.43;2.38;;;;;;;;;;5083925;28;20303;-68
2023/06/26 10:40:50;;;;;;;4.78;2.50;;;;;;;;;;5084260;28;20594;-67
2023/06/26 10:43:16;;;;;;;4.50;1.98;;;;;;;;;;5076857;28;20623;-68
2023/06/26 10:45:54;;;;;;;4.85;1.83;;;;;;;;;;5081105;28;20185;-67
2023/06/26 10:48:20;;;;;;;5.95;2.42;;;;;;;;;;5085541;28;20815;-65
2023/06/26 10:50:49;;;;;;;6.68;2.22;;;;;;;;;;5072191;28;20678;-68
2023/06/26 10:53:24;;;;;;;8.18;2.50;;;;;;;;;;5087069;28;20249;-67
2023/06/26 10:56:10;;;;;;;6.05;2.58;;;;;;;;;;5074478;28;20190;-67
2023/06/26 10:58:41;;;;;;;3.60;2.25;;;;;;;;;;5074845;28;20223;-68
2023/06/26 11:01:26;;;;;;;5.97;2.17;;;;;;;;;;5075805;28;20710;-70
2023/06/26 11:03:57;;;;;;;5.55;2.00;;;;;;;;;;5072415;28;20275;-70
2023/06/26 11:06:22;;;;;;;6.40;2.25;;;;;;;;;;5073641;28;20184;-68
2023/06/26 11:08:49;;;;;;;7.88;2.30;;;;;;;;;;5076553;28;20193;-68
2023/06/26 11:11:15;;;;;;;5.10;1.95;;;;;;;;;;5072695;28;20255;-69
2023/06/26 11:13:42;;;;;;;5.55;2.30;;;;;;;;;;5068157;28;20212;-67
2023/06/26 11:16:07;;;;;;;8.43;2.30;;;;;;;;;;5068069;28;20181;-68
2023/06/26 11:18:33;;;;;;;3.60;1.70;;;;;;;;;;5087269;28;20188;-68
2023/06/26 11:21:13;;;;;;;4.75;1.70;;;;;;;;;;5078495;28;20181;-69
2023/06/26 11:23:39;;;;;;;4.30;2.10;;;;;;;;;;5087658;28;20184;-67
2023/06/26 11:26:14;;;;;;;5.97;1.88;;;;;;;;;;5091778;28;20179;-68
2023/06/26 11:28:46;;;;;;;4.07;1.83;;;;;;;;;;5073423;28;20219;-69
2023/06/26 11:31:27;;;;;;;5.97;1.80;;;;;;;;;;5073069;28;20192;-66
2023/06/26 11:33:54;;;;;;;5.75;1.70;;;;;;;;;;5073644;28;20208;-67
2023/06/26 11:36:19;;;;;;;4.65;1.85;;;;;;;;;;5083586;28;20215;-70
2023/06/26 11:38:45;;;;;;;3.78;1.70;;;;;;;;;;5089311;28;20219;-69
2023/06/26 11:41:10;;;;;;;5.15;1.70;;;;;;;;;;5074999;28;20307;-67
2023/06/26 11:43:36;;;;;;;4.85;1.85;;;;;;;;;;5075354;28;20201;-70
2023/06/26 11:46:01;;;;;;;7.03;1.80;;;;;;;;;;5092005;28;20180;-69
2023/06/26 11:48:27;;;;;;;4.80;1.80;;;;;;;;;;5091210;28;20275;-67
2023/06/26 11:50:54;;;;;;;3.65;2.03;;;;;;;;;;5073187;28;20233;-68
2023/06/26 11:53:19;;;;;;;6.07;1.80;;;;;;;;;;5076748;28;20205;-66
2023/06/26 11:55:45;;;;;;;3.47;1.55;;;;;;;;;;5085592;28;20183;-69
2023/06/26 11:58:10;;;;;;;2.30;1.40;;;;;;;;;;5081920;28;20208;-70
2023/06/26 12:00:41;;;;;;;3.78;1.35;;;;;;;;;;5070407;28;20212;-69
2023/06/26 12:03:06;;;;;;;5.95;1.83;;;;;;;;;;5085191;28;20187;-70
2023/06/26 12:05:32;;;;;;;6.22;1.75;;;;;;;;;;5077886;28;20189;-70
2023/06/26 12:07:59;;;;;;;5.00;1.40;;;;;;;;;;5077744;28;20695;-69
2023/06/26 12:10:24;;;;;;;2.85;1.73;;;;;;;;;;5071510;28;20246;-70
2023/06/26 12:12:50;;;;;;;3.47;1.27;;;;;;;;;;5081607;28;20211;-68
2023/06/26 12:15:16;;;;;;;2.53;1.50;;;;;;;;;;5091827;28;20199;-70
2023/06/26 12:17:42;;;;;;;3.65;1.45;;;;;;;;;;5089843;28;20180;-70
2023/06/26 12:20:19;;;;;;;7.78;1.50;;;;;;;;;;5087691;28;20185;-66
2023/06/26 12:22:46;;;;;;;4.18;1.30;;;;;;;;;;5081100;28;20274;-69
2023/06/26 12:25:11;;;;;;;4.82;1.30;;;;;;;;;;5088336;28;20184;-69
2023/06/26 12:27:37;;;;;;;1.85;1.13;;;;;;;;;;5085276;28;20663;-68
2023/06/26 12:30:03;;;;;;;3.30;1.20;;;;;;;;;;5090376;28;20313;-69
2023/06/26 12:32:29;;;;;;;4.78;1.35;;;;;;;;;;5081779;28;20180;-69
2023/06/26 12:34:56;;;;;;;4.18;1.17;;;;;;;;;;5081930;28;20246;-69
2023/06/26 12:37:22;;;;;;;4.43;1.00;;;;;;;;;;5084023;28;20219;-68
2023/06/26 12:39:56;;;;;;;2.80;1.02;;;;;;;;;;5072617;28;20268;-68
2023/06/26 12:42:28;;;;;;;1.83;0.90;;;;;;;;;;5072956;28;20185;-67
2023/06/26 12:44:56;;;;;;;3.33;1.00;;;;;;;;;;5089275;28;20195;-68
2023/06/26 12:47:26;;;;;;;2.50;0.98;;;;;;;;;;5078037;28;20193;-69
2023/06/26 12:49:53;;;;;;;4.20;1.00;;;;;;;;;;5071647;28;20205;-68
2023/06/26 12:52:19;;;;;;;6.13;1.10;;;;;;;;;;5077588;28;20187;-67
2023/06/26 12:54:46;;;;;;;4.22;1.30;;;;;;;;;;5072926;28;20208;-69
2023/06/26 12:57:14;;;;;;;3.42;1.30;;;;;;;;;;5077350;28;20549;-70
2023/06/26 12:59:40;;;;;;;4.70;1.25;;;;;;;;;;5074215;28;20214;-69
2023/06/26 13:02:06;;;;;;;4.63;1.48;;;;;;;;;;5072810;28;20217;-69
2023/06/26 13:04:32;;;;;;;4.60;1.30;;;;;;;;;;5083997;28;20176;-68
2023/06/26 13:06:58;;;;;;;3.17;1.20;;;;;;;;;;5076887;28;20192;-70
2023/06/26 13:09:24;;;;;;;7.90;1.48;;;;;;;;;;5073048;28;20582;-69
2023/06/26 13:11:53;;;;;;;3.33;1.23;;;;;;;;;;5074135;28;20180;-69
2023/06/26 13:14:19;;;;;;;4.60;1.40;;;;;;;;;;5078004;28;20249;-67
2023/06/26 13:16:44;;;;;;;4.57;1.05;;;;;;;;;;5071866;28;20181;-66
2023/06/26 13:19:10;;;;;;;4.25;1.02;;;;;;;;;;5080005;28;20192;-68
2023/06/26 13:21:35;;;;;;;3.83;0.95;;;;;;;;;;5082705;28;20267;-69
2023/06/26 13:24:03;;;;;;;5.22;1.40;;;;;;;;;;5078563;28;20283;-69
2023/06/26 13:26:28;;;;;;;5.13;1.40;;;;;;;;;;5070075;28;20192;-69
2023/06/26 13:28:54;;;;;;;5.35;1.40;;;;;;;;;;5084909;28;20192;-68
2023/06/26 13:31:20;;;;;;;4.53;1.20;;;;;;;;;;5073659;28;20189;-68
2023/06/26 13:33:48;;;;;;;5.75;1.60;;;;;;;;;;5084394;28;20699;-68
2023/06/26 13:36:14;;;;;;;5.13;1.30;;;;;;;;;;5072645;28;20702;-67
2023/06/26 13:38:39;;;;;;;8.27;1.52;;;;;;;;;;5086113;28;20215;-69
2023/06/26 13:41:04;;;;;;;4.25;1.10;;;;;;;;;;5082877;28;20232;-68
2023/06/26 13:43:30;;;;;;;3.08;0.98;;;;;;;;;;5082775;28;20621;-66
2023/06/26 13:45:56;;;;;;;5.80;1.38;;;;;;;;;;5084424;28;20176;-67
2023/06/26 13:48:24;;;;;;;3.33;1.15;;;;;;;;;;5088324;28;20184;-69
2023/06/26 13:50:50;;;;;;;2.97;1.20;;;;;;;;;;5074471;28;20271;-68
2023/06/26 13:53:15;;;;;;;1.88;1.08;;;;;;;;;;5084206;28;20811;-69
2023/06/26 13:55:41;;;;;;;1.77;0.75;;;;;;;;;;5087246;28;20196;-70
2023/06/26 13:58:10;;;;;;;4.80;1.10;;;;;;;;;;5073804;28;20271;-68
2023/06/26 14:00:36;;;;;;;4.53;1.10;;;;;;;;;;5079993;28;20300;-68
2023/06/26 14:03:03;;;;;;;3.80;1.05;;;;;;;;;;5076064;28;20567;-67
2023/06/26 14:05:29;;;;;;;6.03;1.20;;;;;;;;;;5075191;28;20184;-66
2023/06/26 14:07:54;;;;;;;4.57;1.17;;;;;;;;;;5084981;28;20233;-68
2023/06/26 14:10:21;;;;;;;4.20;1.23;;;;;;;;;;5072336;28;20184;-69
2023/06/26 14:12:46;;;;;;;3.15;1.17;;;;;;;;;;5083714;28;20188;-67
2023/06/26 14:15:12;;;;;;;4.38;1.35;;;;;;;;;;5074287;28;20203;-69
2023/06/26 14:17:39;;;;;;;3.42;1.40;;;;;;;;;;5077330;28;20526;-68
2023/06/26 14:20:08;;;;;;;1.92;0.90;;;;;;;;;;5074451;28;20645;-67
2023/06/26 14:22:34;;;;;;;3.30;1.20;;;;;;;;;;5075512;28;20211;-67
2023/06/26 14:24:59;;;;;;;3.88;0.82;;;;;;;;;;5071078;28;20193;-65
2023/06/26 14:27:24;;;;;;;4.18;1.10;;;;;;;;;;5077771;28;20220;-68